sensor_id;sensor_type;location;lat;lon;timestamp;P1;P2;P0
36453;PMS5003;22478;51.740;-1.314;2023-11-18T00:01:07;5;5;
36453;PMS5003;22478;51.740;-1.314;2023-11-18T00:03:34;4;3;
36453;PMS5003;22478;51.740;-1.314;2023-11-18T00:06:01;5;4;
36453;PMS5003;22478;51.740;-1.314;2023-11-18T00:08:28;8;6;
36453;PMS5003;22478;51.740;-1.314;2023-11-18T00:10:56;4;4;
36453;PMS5003;22478;51.740;-1.314;2023-11-18T00:13:23;6;4;
36453;PMS5003;22478;51.740;-1.314;2023-11-18T00:15:50;5;5;
36453;PMS5003;22478;51.740;-1.314;2023-11-18T00:18:17;8;6;
36453;PMS5003;22478;51.740;-1.314;2023-11-18T00:20:43;9;6;
36453;PMS5003;22478;51.740;-1.314;2023-11-18T00:23:11;7;5;
36453;PMS5003;22478;51.740;-1.314;2023-11-18T00:25:38;7;6;
36453;PMS5003;22478;51.740;-1.314;2023-11-18T00:28:05;6;6;
36453;PMS5003;22478;51.740;-1.314;2023-11-18T00:30:32;6;6;
36453;PMS5003;22478;51.740;-1.314;2023-11-18T00:32:59;5;4;
36453;PMS5003;22478;51.740;-1.314;2023-11-18T00:35:26;8;6;
36453;PMS5003;22478;51.740;-1.314;2023-11-18T00:37:54;5;5;
36453;PMS5003;22478;51.740;-1.314;2023-11-18T00:40:21;5;4;
36453;PMS5003;22478;51.740;-1.314;2023-11-18T00:42:48;5;3;
36453;PMS5003;22478;51.740;-1.314;2023-11-18T00:45:15;8;5;
36453;PMS5003;22478;51.740;-1.314;2023-11-18T00:47:42;6;5;
36453;PMS5003;22478;51.740;-1.314;2023-11-18T00:50:09;4;4;
36453;PMS5003;22478;51.740;-1.314;2023-11-18T00:52:36;8;6;
36453;PMS5003;22478;51.740;-1.314;2023-11-18T00:55:04;4;4;
36453;PMS5003;22478;51.740;-1.314;2023-11-18T00:57:33;8;6;
36453;PMS5003;22478;51.740;-1.314;2023-11-18T01:00:00;6;4;
36453;PMS5003;22478;51.740;-1.314;2023-11-18T01:02:27;5;5;
36453;PMS5003;22478;51.740;-1.314;2023-11-18T01:04:54;6;6;
36453;PMS5003;22478;51.740;-1.314;2023-11-18T01:07:21;6;6;
36453;PMS5003;22478;51.740;-1.314;2023-11-18T01:09:49;7;6;
36453;PMS5003;22478;51.740;-1.314;2023-11-18T01:12:16;9;8;
36453;PMS5003;22478;51.740;-1.314;2023-11-18T01:14:43;9;6;
36453;PMS5003;22478;51.740;-1.314;2023-11-18T01:17:10;9;9;
36453;PMS5003;22478;51.740;-1.314;2023-11-18T01:19:42;10;8;
36453;PMS5003;22478;51.740;-1.314;2023-11-18T01:22:14;9;8;
36453;PMS5003;22478;51.740;-1.314;2023-11-18T01:24:42;8;8;
36453;PMS5003;22478;51.740;-1.314;2023-11-18T01:27:09;12;9;
36453;PMS5003;22478;51.740;-1.314;2023-11-18T01:29:36;13;13;
36453;PMS5003;22478;51.740;-1.314;2023-11-18T01:32:04;11;10;
36453;PMS5003;22478;51.740;-1.314;2023-11-18T01:34:32;9;9;
36453;PMS5003;22478;51.740;-1.314;2023-11-18T01:36:59;9;9;
36453;PMS5003;22478;51.740;-1.314;2023-11-18T01:39:27;10;8;
36453;PMS5003;22478;51.740;-1.314;2023-11-18T01:41:55;11;10;
36453;PMS5003;22478;51.740;-1.314;2023-11-18T01:44:22;7;5;
36453;PMS5003;22478;51.740;-1.314;2023-11-18T01:46:49;9;7;
36453;PMS5003;22478;51.740;-1.314;2023-11-18T01:49:17;6;4;
36453;PMS5003;22478;51.740;-1.314;2023-11-18T01:51:45;6;6;
36453;PMS5003;22478;51.740;-1.314;2023-11-18T01:54:13;6;5;
36453;PMS5003;22478;51.740;-1.314;2023-11-18T01:56:41;7;5;
36453;PMS5003;22478;51.740;-1.314;2023-11-18T01:59:09;6;6;
36453;PMS5003;22478;51.740;-1.314;2023-11-18T02:01:36;7;5;
36453;PMS5003;22478;51.740;-1.314;2023-11-18T02:04:05;5;5;
36453;PMS5003;22478;51.740;-1.314;2023-11-18T02:06:32;8;5;
36453;PMS5003;22478;51.740;-1.314;2023-11-18T02:08:59;4;4;
36453;PMS5003;22478;51.740;-1.314;2023-11-18T02:11:28;7;7;
36453;PMS5003;22478;51.740;-1.314;2023-11-18T02:14:00;8;7;
36453;PMS5003;22478;51.740;-1.314;2023-11-18T02:16:28;7;6;
36453;PMS5003;22478;51.740;-1.314;2023-11-18T02:18:56;5;4;
36453;PMS5003;22478;51.740;-1.314;2023-11-18T02:21:23;5;5;
36453;PMS5003;22478;51.740;-1.314;2023-11-18T02:23:51;5;5;
36453;PMS5003;22478;51.740;-1.314;2023-11-18T02:26:21;7;7;
36453;PMS5003;22478;51.740;-1.314;2023-11-18T02:28:48;7;5;
36453;PMS5003;22478;51.740;-1.314;2023-11-18T02:31:19;6;6;
36453;PMS5003;22478;51.740;-1.314;2023-11-18T02:33:52;7;6;
36453;PMS5003;22478;51.740;-1.314;2023-11-18T02:36:32;7;5;
36453;PMS5003;22478;51.740;-1.314;2023-11-18T02:39:08;8;7;
36453;PMS5003;22478;51.740;-1.314;2023-11-18T02:41:42;5;5;
36453;PMS5003;22478;51.740;-1.314;2023-11-18T02:44:15;6;6;
36453;PMS5003;22478;51.740;-1.314;2023-11-18T02:46:44;6;6;
36453;PMS5003;22478;51.740;-1.314;2023-11-18T02:49:11;7;5;
36453;PMS5003;22478;51.740;-1.314;2023-11-18T02:51:38;7;6;
36453;PMS5003;22478;51.740;-1.314;2023-11-18T02:54:05;6;5;
36453;PMS5003;22478;51.740;-1.314;2023-11-18T02:56:33;3;3;
36453;PMS5003;22478;51.740;-1.314;2023-11-18T02:59:00;3;3;
36453;PMS5003;22478;51.740;-1.314;2023-11-18T03:01:27;4;4;
36453;PMS5003;22478;51.740;-1.314;2023-11-18T03:03:54;7;5;
36453;PMS5003;22478;51.740;-1.314;2023-11-18T03:06:21;3;3;
36453;PMS5003;22478;51.740;-1.314;2023-11-18T03:08:48;2;2;
36453;PMS5003;22478;51.740;-1.314;2023-11-18T03:11:15;2;2;
36453;PMS5003;22478;51.740;-1.314;2023-11-18T03:13:42;2;2;
36453;PMS5003;22478;51.740;-1.314;2023-11-18T03:16:09;4;4;
36453;PMS5003;22478;51.740;-1.314;2023-11-18T03:18:37;3;3;
36453;PMS5003;22478;51.740;-1.314;2023-11-18T03:21:05;2;2;
36453;PMS5003;22478;51.740;-1.314;2023-11-18T03:23:37;2;2;
36453;PMS5003;22478;51.740;-1.314;2023-11-18T03:26:04;2;2;
36453;PMS5003;22478;51.740;-1.314;2023-11-18T03:28:32;3;2;
36453;PMS5003;22478;51.740;-1.314;2023-11-18T03:30:59;2;1;
36453;PMS5003;22478;51.740;-1.314;2023-11-18T03:33:27;1;1;
36453;PMS5003;22478;51.740;-1.314;2023-11-18T03:35:54;3;3;
36453;PMS5003;22478;51.740;-1.314;2023-11-18T03:38:21;2;1;
36453;PMS5003;22478;51.740;-1.314;2023-11-18T03:40:48;1;1;
36453;PMS5003;22478;51.740;-1.314;2023-11-18T03:43:15;1;1;
36453;PMS5003;22478;51.740;-1.314;2023-11-18T03:45:42;2;2;
36453;PMS5003;22478;51.740;-1.314;2023-11-18T03:48:09;2;2;
36453;PMS5003;22478;51.740;-1.314;2023-11-18T03:50:37;2;2;
36453;PMS5003;22478;51.740;-1.314;2023-11-18T03:53:04;1;1;
36453;PMS5003;22478;51.740;-1.314;2023-11-18T03:55:31;1;1;
36453;PMS5003;22478;51.740;-1.314;2023-11-18T03:57:58;2;2;
36453;PMS5003;22478;51.740;-1.314;2023-11-18T04:00:25;2;2;
36453;PMS5003;22478;51.740;-1.314;2023-11-18T04:02:52;1;1;
36453;PMS5003;22478;51.740;-1.314;2023-11-18T04:05:19;0;0;
36453;PMS5003;22478;51.740;-1.314;2023-11-18T04:07:46;1;1;
36453;PMS5003;22478;51.740;-1.314;2023-11-18T04:10:13;1;1;
36453;PMS5003;22478;51.740;-1.314;2023-11-18T04:12:40;1;1;
36453;PMS5003;22478;51.740;-1.314;2023-11-18T04:15:08;0;0;
36453;PMS5003;22478;51.740;-1.314;2023-11-18T04:17:35;1;1;
36453;PMS5003;22478;51.740;-1.314;2023-11-18T04:20:03;1;1;
36453;PMS5003;22478;51.740;-1.314;2023-11-18T04:22:30;1;1;
36453;PMS5003;22478;51.740;-1.314;2023-11-18T04:24:57;2;2;
36453;PMS5003;22478;51.740;-1.314;2023-11-18T04:27:24;2;2;
36453;PMS5003;22478;51.740;-1.314;2023-11-18T04:29:52;1;1;
36453;PMS5003;22478;51.740;-1.314;2023-11-18T04:32:19;0;0;
36453;PMS5003;22478;51.740;-1.314;2023-11-18T04:34:46;2;2;
36453;PMS5003;22478;51.740;-1.314;2023-11-18T04:37:13;1;1;
36453;PMS5003;22478;51.740;-1.314;2023-11-18T04:39:40;0;0;
36453;PMS5003;22478;51.740;-1.314;2023-11-18T04:42:07;2;2;
36453;PMS5003;22478;51.740;-1.314;2023-11-18T04:44:34;1;1;
36453;PMS5003;22478;51.740;-1.314;2023-11-18T04:47:01;1;1;
36453;PMS5003;22478;51.740;-1.314;2023-11-18T04:49:28;1;1;
36453;PMS5003;22478;51.740;-1.314;2023-11-18T04:51:55;1;1;
36453;PMS5003;22478;51.740;-1.314;2023-11-18T04:54:22;2;2;
36453;PMS5003;22478;51.740;-1.314;2023-11-18T04:56:49;1;1;
36453;PMS5003;22478;51.740;-1.314;2023-11-18T04:59:16;1;1;
36453;PMS5003;22478;51.740;-1.314;2023-11-18T05:01:43;1;1;
36453;PMS5003;22478;51.740;-1.314;2023-11-18T05:04:10;1;1;
36453;PMS5003;22478;51.740;-1.314;2023-11-18T05:06:38;1;1;
36453;PMS5003;22478;51.740;-1.314;2023-11-18T05:09:05;0;0;
36453;PMS5003;22478;51.740;-1.314;2023-11-18T05:11:32;2;2;
36453;PMS5003;22478;51.740;-1.314;2023-11-18T05:13:59;2;2;
36453;PMS5003;22478;51.740;-1.314;2023-11-18T05:16:27;2;2;
36453;PMS5003;22478;51.740;-1.314;2023-11-18T05:18:54;1;1;
36453;PMS5003;22478;51.740;-1.314;2023-11-18T05:21:21;2;2;
36453;PMS5003;22478;51.740;-1.314;2023-11-18T05:23:48;2;2;
36453;PMS5003;22478;51.740;-1.314;2023-11-18T05:26:15;2;2;
36453;PMS5003;22478;51.740;-1.314;2023-11-18T05:28:42;2;2;
36453;PMS5003;22478;51.740;-1.314;2023-11-18T05:31:09;1;1;
36453;PMS5003;22478;51.740;-1.314;2023-11-18T05:33:36;3;3;
36453;PMS5003;22478;51.740;-1.314;2023-11-18T05:36:04;3;3;
36453;PMS5003;22478;51.740;-1.314;2023-11-18T05:38:31;2;2;
36453;PMS5003;22478;51.740;-1.314;2023-11-18T05:40:58;0;0;
36453;PMS5003;22478;51.740;-1.314;2023-11-18T05:43:26;1;1;
36453;PMS5003;22478;51.740;-1.314;2023-11-18T05:45:55;2;2;
36453;PMS5003;22478;51.740;-1.314;2023-11-18T05:48:22;0;0;
36453;PMS5003;22478;51.740;-1.314;2023-11-18T05:50:49;2;2;
36453;PMS5003;22478;51.740;-1.314;2023-11-18T05:53:16;1;1;
36453;PMS5003;22478;51.740;-1.314;2023-11-18T05:55:43;1;1;
36453;PMS5003;22478;51.740;-1.314;2023-11-18T05:58:10;0;0;
36453;PMS5003;22478;51.740;-1.314;2023-11-18T06:00:37;1;1;
36453;PMS5003;22478;51.740;-1.314;2023-11-18T06:03:04;2;2;
36453;PMS5003;22478;51.740;-1.314;2023-11-18T06:05:31;1;1;
36453;PMS5003;22478;51.740;-1.314;2023-11-18T06:07:58;1;1;
36453;PMS5003;22478;51.740;-1.314;2023-11-18T06:10:25;0;0;
36453;PMS5003;22478;51.740;-1.314;2023-11-18T06:12:52;1;1;
36453;PMS5003;22478;51.740;-1.314;2023-11-18T06:15:20;1;1;
36453;PMS5003;22478;51.740;-1.314;2023-11-18T06:17:47;1;1;
36453;PMS5003;22478;51.740;-1.314;2023-11-18T06:20:14;1;1;
36453;PMS5003;22478;51.740;-1.314;2023-11-18T06:22:41;1;1;
36453;PMS5003;22478;51.740;-1.314;2023-11-18T06:25:08;1;1;
36453;PMS5003;22478;51.740;-1.314;2023-11-18T06:27:36;1;1;
36453;PMS5003;22478;51.740;-1.314;2023-11-18T06:30:03;1;1;
36453;PMS5003;22478;51.740;-1.314;2023-11-18T06:32:31;1;1;
36453;PMS5003;22478;51.740;-1.314;2023-11-18T06:34:58;1;1;
36453;PMS5003;22478;51.740;-1.314;2023-11-18T06:37:25;2;1;
36453;PMS5003;22478;51.740;-1.314;2023-11-18T06:39:58;0;0;
36453;PMS5003;22478;51.740;-1.314;2023-11-18T06:42:25;2;2;
36453;PMS5003;22478;51.740;-1.314;2023-11-18T06:44:52;1;1;
36453;PMS5003;22478;51.740;-1.314;2023-11-18T06:47:19;1;1;
36453;PMS5003;22478;51.740;-1.314;2023-11-18T06:49:46;1;1;
36453;PMS5003;22478;51.740;-1.314;2023-11-18T06:52:13;1;1;
36453;PMS5003;22478;51.740;-1.314;2023-11-18T06:54:40;0;0;
36453;PMS5003;22478;51.740;-1.314;2023-11-18T06:57:07;0;0;
36453;PMS5003;22478;51.740;-1.314;2023-11-18T06:59:34;1;1;
36453;PMS5003;22478;51.740;-1.314;2023-11-18T07:02:01;0;0;
36453;PMS5003;22478;51.740;-1.314;2023-11-18T07:04:29;1;1;
36453;PMS5003;22478;51.740;-1.314;2023-11-18T07:06:56;0;0;
36453;PMS5003;22478;51.740;-1.314;2023-11-18T07:09:23;0;0;
36453;PMS5003;22478;51.740;-1.314;2023-11-18T07:11:50;0;0;
36453;PMS5003;22478;51.740;-1.314;2023-11-18T07:14:17;2;1;
36453;PMS5003;22478;51.740;-1.314;2023-11-18T07:16:44;0;0;
36453;PMS5003;22478;51.740;-1.314;2023-11-18T07:19:11;0;0;
36453;PMS5003;22478;51.740;-1.314;2023-11-18T07:21:40;1;1;
36453;PMS5003;22478;51.740;-1.314;2023-11-18T07:24:08;0;0;
36453;PMS5003;22478;51.740;-1.314;2023-11-18T07:26:36;1;1;
36453;PMS5003;22478;51.740;-1.314;2023-11-18T07:29:03;0;0;
36453;PMS5003;22478;51.740;-1.314;2023-11-18T07:31:31;0;0;
36453;PMS5003;22478;51.740;-1.314;2023-11-18T07:33:58;0;0;
36453;PMS5003;22478;51.740;-1.314;2023-11-18T07:36:25;0;0;
36453;PMS5003;22478;51.740;-1.314;2023-11-18T07:38:52;0;0;
36453;PMS5003;22478;51.740;-1.314;2023-11-18T07:41:19;0;0;
36453;PMS5003;22478;51.740;-1.314;2023-11-18T07:43:46;1;0;
36453;PMS5003;22478;51.740;-1.314;2023-11-18T07:46:13;0;0;
36453;PMS5003;22478;51.740;-1.314;2023-11-18T07:48:40;0;0;
36453;PMS5003;22478;51.740;-1.314;2023-11-18T07:51:09;0;0;
36453;PMS5003;22478;51.740;-1.314;2023-11-18T07:53:36;0;0;
36453;PMS5003;22478;51.740;-1.314;2023-11-18T07:56:05;0;0;
36453;PMS5003;22478;51.740;-1.314;2023-11-18T07:58:32;0;0;
36453;PMS5003;22478;51.740;-1.314;2023-11-18T08:01:00;0;0;
36453;PMS5003;22478;51.740;-1.314;2023-11-18T08:03:27;0;0;
36453;PMS5003;22478;51.740;-1.314;2023-11-18T08:05:54;0;0;
36453;PMS5003;22478;51.740;-1.314;2023-11-18T08:08:21;0;0;
36453;PMS5003;22478;51.740;-1.314;2023-11-18T08:10:48;0;0;
36453;PMS5003;22478;51.740;-1.314;2023-11-18T08:13:15;0;0;
36453;PMS5003;22478;51.740;-1.314;2023-11-18T08:15:42;0;0;
36453;PMS5003;22478;51.740;-1.314;2023-11-18T08:18:10;0;0;
36453;PMS5003;22478;51.740;-1.314;2023-11-18T08:20:38;0;0;
36453;PMS5003;22478;51.740;-1.314;2023-11-18T08:23:05;0;0;
36453;PMS5003;22478;51.740;-1.314;2023-11-18T08:25:32;0;0;
36453;PMS5003;22478;51.740;-1.314;2023-11-18T08:28:01;0;0;
36453;PMS5003;22478;51.740;-1.314;2023-11-18T08:30:29;0;0;
36453;PMS5003;22478;51.740;-1.314;2023-11-18T08:32:56;0;0;
36453;PMS5003;22478;51.740;-1.314;2023-11-18T08:35:23;0;0;
36453;PMS5003;22478;51.740;-1.314;2023-11-18T08:37:50;0;0;
36453;PMS5003;22478;51.740;-1.314;2023-11-18T08:40:17;0;0;
36453;PMS5003;22478;51.740;-1.314;2023-11-18T08:42:45;0;0;
36453;PMS5003;22478;51.740;-1.314;2023-11-18T08:45:14;0;0;
36453;PMS5003;22478;51.740;-1.314;2023-11-18T08:47:42;0;0;
36453;PMS5003;22478;51.740;-1.314;2023-11-18T08:50:10;0;0;
36453;PMS5003;22478;51.740;-1.314;2023-11-18T08:52:37;0;0;
36453;PMS5003;22478;51.740;-1.314;2023-11-18T08:55:05;0;0;
36453;PMS5003;22478;51.740;-1.314;2023-11-18T08:57:32;0;0;
36453;PMS5003;22478;51.740;-1.314;2023-11-18T09:00:01;0;0;
36453;PMS5003;22478;51.740;-1.314;2023-11-18T09:02:28;0;0;
36453;PMS5003;22478;51.740;-1.314;2023-11-18T09:04:55;0;0;
36453;PMS5003;22478;51.740;-1.314;2023-11-18T09:07:22;0;0;
36453;PMS5003;22478;51.740;-1.314;2023-11-18T09:09:49;0;0;
36453;PMS5003;22478;51.740;-1.314;2023-11-18T09:12:16;0;0;
36453;PMS5003;22478;51.740;-1.314;2023-11-18T09:14:43;0;0;
36453;PMS5003;22478;51.740;-1.314;2023-11-18T09:17:10;0;0;
36453;PMS5003;22478;51.740;-1.314;2023-11-18T09:19:37;0;0;
36453;PMS5003;22478;51.740;-1.314;2023-11-18T09:22:04;0;0;
36453;PMS5003;22478;51.740;-1.314;2023-11-18T09:24:31;0;0;
36453;PMS5003;22478;51.740;-1.314;2023-11-18T09:26:58;0;0;
36453;PMS5003;22478;51.740;-1.314;2023-11-18T09:29:25;0;0;
36453;PMS5003;22478;51.740;-1.314;2023-11-18T09:31:52;0;0;
36453;PMS5003;22478;51.740;-1.314;2023-11-18T09:34:18;0;0;
36453;PMS5003;22478;51.740;-1.314;2023-11-18T09:36:45;2;0;
36453;PMS5003;22478;51.740;-1.314;2023-11-18T09:39:12;0;0;
36453;PMS5003;22478;51.740;-1.314;2023-11-18T09:41:39;1;1;
36453;PMS5003;22478;51.740;-1.314;2023-11-18T09:44:06;0;0;
36453;PMS5003;22478;51.740;-1.314;2023-11-18T09:46:33;0;0;
36453;PMS5003;22478;51.740;-1.314;2023-11-18T09:49:10;0;0;
36453;PMS5003;22478;51.740;-1.314;2023-11-18T09:51:44;0;0;
36453;PMS5003;22478;51.740;-1.314;2023-11-18T09:54:14;0;0;
36453;PMS5003;22478;51.740;-1.314;2023-11-18T09:56:48;0;0;
36453;PMS5003;22478;51.740;-1.314;2023-11-18T09:59:23;0;0;
36453;PMS5003;22478;51.740;-1.314;2023-11-18T10:01:57;0;0;
36453;PMS5003;22478;51.740;-1.314;2023-11-18T10:04:25;0;0;
36453;PMS5003;22478;51.740;-1.314;2023-11-18T10:06:53;0;0;
36453;PMS5003;22478;51.740;-1.314;2023-11-18T10:09:21;0;0;
36453;PMS5003;22478;51.740;-1.314;2023-11-18T10:11:49;0;0;
36453;PMS5003;22478;51.740;-1.314;2023-11-18T10:14:16;0;0;
36453;PMS5003;22478;51.740;-1.314;2023-11-18T10:16:44;0;0;
36453;PMS5003;22478;51.740;-1.314;2023-11-18T10:19:11;0;0;
36453;PMS5003;22478;51.740;-1.314;2023-11-18T10:21:39;1;1;
36453;PMS5003;22478;51.740;-1.314;2023-11-18T10:24:07;1;0;
36453;PMS5003;22478;51.740;-1.314;2023-11-18T10:26:34;1;0;
36453;PMS5003;22478;51.740;-1.314;2023-11-18T10:29:02;0;0;
36453;PMS5003;22478;51.740;-1.314;2023-11-18T10:31:30;0;0;
36453;PMS5003;22478;51.740;-1.314;2023-11-18T10:33:57;0;0;
36453;PMS5003;22478;51.740;-1.314;2023-11-18T10:36:24;0;0;
36453;PMS5003;22478;51.740;-1.314;2023-11-18T10:38:51;0;0;
36453;PMS5003;22478;51.740;-1.314;2023-11-18T10:41:20;0;0;
36453;PMS5003;22478;51.740;-1.314;2023-11-18T10:43:46;0;0;
36453;PMS5003;22478;51.740;-1.314;2023-11-18T10:46:15;0;0;
36453;PMS5003;22478;51.740;-1.314;2023-11-18T10:48:44;0;0;
36453;PMS5003;22478;51.740;-1.314;2023-11-18T10:51:12;0;0;
36453;PMS5003;22478;51.740;-1.314;2023-11-18T10:53:40;0;0;
36453;PMS5003;22478;51.740;-1.314;2023-11-18T10:56:16;0;0;
36453;PMS5003;22478;51.740;-1.314;2023-11-18T10:58:44;2;0;
36453;PMS5003;22478;51.740;-1.314;2023-11-18T11:01:10;0;0;
36453;PMS5003;22478;51.740;-1.314;2023-11-18T11:03:46;0;0;
36453;PMS5003;22478;51.740;-1.314;2023-11-18T11:06:19;0;0;
36453;PMS5003;22478;51.740;-1.314;2023-11-18T11:08:47;0;0;
36453;PMS5003;22478;51.740;-1.314;2023-11-18T11:11:14;0;0;
36453;PMS5003;22478;51.740;-1.314;2023-11-18T11:13:44;0;0;
36453;PMS5003;22478;51.740;-1.314;2023-11-18T11:16:17;0;0;
36453;PMS5003;22478;51.740;-1.314;2023-11-18T11:18:47;0;0;
36453;PMS5003;22478;51.740;-1.314;2023-11-18T11:21:20;1;0;
36453;PMS5003;22478;51.740;-1.314;2023-11-18T11:23:53;0;0;
36453;PMS5003;22478;51.740;-1.314;2023-11-18T11:26:23;1;1;
36453;PMS5003;22478;51.740;-1.314;2023-11-18T11:29:02;0;0;
36453;PMS5003;22478;51.740;-1.314;2023-11-18T11:31:38;0;0;
36453;PMS5003;22478;51.740;-1.314;2023-11-18T11:34:06;0;0;
36453;PMS5003;22478;51.740;-1.314;2023-11-18T11:36:42;0;0;
36453;PMS5003;22478;51.740;-1.314;2023-11-18T11:39:13;0;0;
36453;PMS5003;22478;51.740;-1.314;2023-11-18T11:41:42;0;0;
36453;PMS5003;22478;51.740;-1.314;2023-11-18T11:44:12;0;0;
36453;PMS5003;22478;51.740;-1.314;2023-11-18T11:46:40;0;0;
36453;PMS5003;22478;51.740;-1.314;2023-11-18T11:49:08;5;1;
36453;PMS5003;22478;51.740;-1.314;2023-11-18T11:51:41;0;0;
36453;PMS5003;22478;51.740;-1.314;2023-11-18T11:54:16;0;0;
36453;PMS5003;22478;51.740;-1.314;2023-11-18T11:56:46;0;0;
36453;PMS5003;22478;51.740;-1.314;2023-11-18T11:59:15;1;1;
36453;PMS5003;22478;51.740;-1.314;2023-11-18T12:01:42;0;0;
36453;PMS5003;22478;51.740;-1.314;2023-11-18T12:04:09;0;0;
36453;PMS5003;22478;51.740;-1.314;2023-11-18T12:06:42;0;0;
36453;PMS5003;22478;51.740;-1.314;2023-11-18T12:09:10;0;0;
36453;PMS5003;22478;51.740;-1.314;2023-11-18T12:11:40;0;0;
36453;PMS5003;22478;51.740;-1.314;2023-11-18T12:14:10;0;0;
36453;PMS5003;22478;51.740;-1.314;2023-11-18T12:17:10;0;0;
36453;PMS5003;22478;51.740;-1.314;2023-11-18T12:19:37;1;0;
36453;PMS5003;22478;51.740;-1.314;2023-11-18T12:22:05;1;0;
36453;PMS5003;22478;51.740;-1.314;2023-11-18T12:24:32;0;0;
36453;PMS5003;22478;51.740;-1.314;2023-11-18T12:26:59;0;0;
36453;PMS5003;22478;51.740;-1.314;2023-11-18T12:29:33;1;1;
36453;PMS5003;22478;51.740;-1.314;2023-11-18T12:32:00;1;1;
36453;PMS5003;22478;51.740;-1.314;2023-11-18T12:34:49;2;1;
36453;PMS5003;22478;51.740;-1.314;2023-11-18T12:37:26;1;1;
36453;PMS5003;22478;51.740;-1.314;2023-11-18T12:40:23;1;1;
36453;PMS5003;22478;51.740;-1.314;2023-11-18T12:43:03;4;1;
36453;PMS5003;22478;51.740;-1.314;2023-11-18T12:45:41;0;0;
36453;PMS5003;22478;51.740;-1.314;2023-11-18T12:48:13;2;2;
36453;PMS5003;22478;51.740;-1.314;2023-11-18T12:50:41;1;1;
36453;PMS5003;22478;51.740;-1.314;2023-11-18T12:53:08;1;1;
36453;PMS5003;22478;51.740;-1.314;2023-11-18T12:55:37;1;1;
36453;PMS5003;22478;51.740;-1.314;2023-11-18T12:58:06;0;0;
36453;PMS5003;22478;51.740;-1.314;2023-11-18T13:00:34;1;1;
36453;PMS5003;22478;51.740;-1.314;2023-11-18T13:03:01;1;1;
36453;PMS5003;22478;51.740;-1.314;2023-11-18T13:05:28;3;1;
36453;PMS5003;22478;51.740;-1.314;2023-11-18T13:07:55;1;1;
36453;PMS5003;22478;51.740;-1.314;2023-11-18T13:10:22;0;0;
36453;PMS5003;22478;51.740;-1.314;2023-11-18T13:12:49;1;1;
36453;PMS5003;22478;51.740;-1.314;2023-11-18T13:15:16;2;2;
36453;PMS5003;22478;51.740;-1.314;2023-11-18T13:17:56;1;1;
36453;PMS5003;22478;51.740;-1.314;2023-11-18T13:20:24;1;1;
36453;PMS5003;22478;51.740;-1.314;2023-11-18T13:22:51;0;0;
36453;PMS5003;22478;51.740;-1.314;2023-11-18T13:25:19;1;0;
36453;PMS5003;22478;51.740;-1.314;2023-11-18T13:27:46;2;0;
36453;PMS5003;22478;51.740;-1.314;2023-11-18T13:30:13;0;0;
36453;PMS5003;22478;51.740;-1.314;2023-11-18T13:32:41;1;1;
36453;PMS5003;22478;51.740;-1.314;2023-11-18T13:35:08;3;1;
36453;PMS5003;22478;51.740;-1.314;2023-11-18T13:37:36;1;1;
36453;PMS5003;22478;51.740;-1.314;2023-11-18T13:40:04;1;1;
36453;PMS5003;22478;51.740;-1.314;2023-11-18T13:42:32;1;0;
36453;PMS5003;22478;51.740;-1.314;2023-11-18T13:44:59;2;0;
36453;PMS5003;22478;51.740;-1.314;2023-11-18T13:47:29;1;1;
36453;PMS5003;22478;51.740;-1.314;2023-11-18T13:49:58;1;1;
36453;PMS5003;22478;51.740;-1.314;2023-11-18T13:52:25;3;1;
36453;PMS5003;22478;51.740;-1.314;2023-11-18T13:54:53;3;3;
36453;PMS5003;22478;51.740;-1.314;2023-11-18T13:57:19;2;1;
36453;PMS5003;22478;51.740;-1.314;2023-11-18T13:59:46;2;1;
36453;PMS5003;22478;51.740;-1.314;2023-11-18T14:02:15;3;2;
36453;PMS5003;22478;51.740;-1.314;2023-11-18T14:04:42;2;2;
36453;PMS5003;22478;51.740;-1.314;2023-11-18T14:07:13;5;2;
36453;PMS5003;22478;51.740;-1.314;2023-11-18T14:09:42;3;2;
36453;PMS5003;22478;51.740;-1.314;2023-11-18T14:12:08;4;3;
36453;PMS5003;22478;51.740;-1.314;2023-11-18T14:14:35;3;1;
36453;PMS5003;22478;51.740;-1.314;2023-11-18T14:17:03;2;1;
36453;PMS5003;22478;51.740;-1.314;2023-11-18T14:19:30;2;2;
36453;PMS5003;22478;51.740;-1.314;2023-11-18T14:21:57;5;3;
36453;PMS5003;22478;51.740;-1.314;2023-11-18T14:24:24;6;3;
36453;PMS5003;22478;51.740;-1.314;2023-11-18T14:26:51;6;3;
36453;PMS5003;22478;51.740;-1.314;2023-11-18T14:29:18;3;1;
36453;PMS5003;22478;51.740;-1.314;2023-11-18T14:31:45;5;3;
36453;PMS5003;22478;51.740;-1.314;2023-11-18T14:34:12;3;3;
36453;PMS5003;22478;51.740;-1.314;2023-11-18T14:36:40;2;2;
36453;PMS5003;22478;51.740;-1.314;2023-11-18T14:39:08;2;2;
36453;PMS5003;22478;51.740;-1.314;2023-11-18T14:41:41;3;3;
36453;PMS5003;22478;51.740;-1.314;2023-11-18T14:44:09;5;3;
36453;PMS5003;22478;51.740;-1.314;2023-11-18T14:46:36;3;3;
36453;PMS5003;22478;51.740;-1.314;2023-11-18T14:49:03;2;2;
36453;PMS5003;22478;51.740;-1.314;2023-11-18T14:51:29;2;1;
36453;PMS5003;22478;51.740;-1.314;2023-11-18T14:53:57;4;3;
36453;PMS5003;22478;51.740;-1.314;2023-11-18T14:56:25;5;3;
36453;PMS5003;22478;51.740;-1.314;2023-11-18T14:58:53;5;2;
36453;PMS5003;22478;51.740;-1.314;2023-11-18T15:01:20;2;2;
36453;PMS5003;22478;51.740;-1.314;2023-11-18T15:03:46;2;2;
36453;PMS5003;22478;51.740;-1.314;2023-11-18T15:06:13;2;2;
36453;PMS5003;22478;51.740;-1.314;2023-11-18T15:08:41;0;0;
36453;PMS5003;22478;51.740;-1.314;2023-11-18T15:11:09;4;4;
36453;PMS5003;22478;51.740;-1.314;2023-11-18T15:13:36;4;4;
36453;PMS5003;22478;51.740;-1.314;2023-11-18T15:16:03;8;8;
36453;PMS5003;22478;51.740;-1.314;2023-11-18T15:18:31;5;3;
36453;PMS5003;22478;51.740;-1.314;2023-11-18T15:20:58;7;5;
36453;PMS5003;22478;51.740;-1.314;2023-11-18T15:23:25;11;4;
36453;PMS5003;22478;51.740;-1.314;2023-11-18T15:25:52;3;2;
36453;PMS5003;22478;51.740;-1.314;2023-11-18T15:28:19;8;7;
36453;PMS5003;22478;51.740;-1.314;2023-11-18T15:30:46;4;3;
36453;PMS5003;22478;51.740;-1.314;2023-11-18T15:33:13;5;5;
36453;PMS5003;22478;51.740;-1.314;2023-11-18T15:35:41;7;4;
36453;PMS5003;22478;51.740;-1.314;2023-11-18T15:38:08;4;3;
36453;PMS5003;22478;51.740;-1.314;2023-11-18T15:40:36;5;2;
36453;PMS5003;22478;51.740;-1.314;2023-11-18T15:43:03;10;5;
36453;PMS5003;22478;51.740;-1.314;2023-11-18T15:45:31;5;4;
36453;PMS5003;22478;51.740;-1.314;2023-11-18T15:47:58;6;6;
36453;PMS5003;22478;51.740;-1.314;2023-11-18T15:50:26;3;2;
36453;PMS5003;22478;51.740;-1.314;2023-11-18T15:52:54;6;4;
36453;PMS5003;22478;51.740;-1.314;2023-11-18T15:55:22;2;2;
36453;PMS5003;22478;51.740;-1.314;2023-11-18T15:57:50;5;5;
36453;PMS5003;22478;51.740;-1.314;2023-11-18T16:00:19;6;4;
36453;PMS5003;22478;51.740;-1.314;2023-11-18T16:02:47;6;5;
36453;PMS5003;22478;51.740;-1.314;2023-11-18T16:05:15;8;8;
36453;PMS5003;22478;51.740;-1.314;2023-11-18T16:07:43;5;5;
36453;PMS5003;22478;51.740;-1.314;2023-11-18T16:10:11;9;7;
36453;PMS5003;22478;51.740;-1.314;2023-11-18T16:12:39;7;5;
36453;PMS5003;22478;51.740;-1.314;2023-11-18T16:15:06;10;5;
36453;PMS5003;22478;51.740;-1.314;2023-11-18T16:17:33;14;11;
36453;PMS5003;22478;51.740;-1.314;2023-11-18T16:20:01;9;9;
36453;PMS5003;22478;51.740;-1.314;2023-11-18T16:22:28;9;6;
36453;PMS5003;22478;51.740;-1.314;2023-11-18T16:25:00;8;8;
36453;PMS5003;22478;51.740;-1.314;2023-11-18T16:27:33;10;7;
36453;PMS5003;22478;51.740;-1.314;2023-11-18T16:30:01;9;6;
36453;PMS5003;22478;51.740;-1.314;2023-11-18T16:32:28;10;7;
36453;PMS5003;22478;51.740;-1.314;2023-11-18T16:34:55;10;9;
36453;PMS5003;22478;51.740;-1.314;2023-11-18T16:37:23;5;5;
36453;PMS5003;22478;51.740;-1.314;2023-11-18T16:39:50;5;3;